Time;durP1;ratioP1;P1;durP2;ratioP2;P2;SDS_P1;SDS_P2;PMS_P1;PMS_P2;Temp;Humidity;BMP_temperature;BMP_pressure;BME280_temperature;BME280_humidity;BME280_pressure;Samples;Min_cycle;Max_cycle;Signal;HPM_P1;HPM_P2
2023/05/15 00:01:21;;;;;;;11.67;10.50;;;9.70;99.90;;;;;;5012842;28;20445;-68
2023/05/15 00:03:50;;;;;;;11.27;8.87;;;9.70;99.90;;;;;;5012922;28;20448;-68
2023/05/15 00:06:18;;;;;;;9.97;8.97;;;9.70;99.90;;;;;;5012773;28;20501;-68
2023/05/15 00:08:46;;;;;;;10.57;9.57;;;9.70;99.90;;;;;;5013044;28;20454;-68
2023/05/15 00:11:14;;;;;;;9.97;8.97;;;9.70;99.90;;;;;;5013067;28;20449;-69
2023/05/15 00:13:42;;;;;;;11.17;10.10;;;9.70;99.90;;;;;;5012641;28;20476;-69
2023/05/15 00:16:11;;;;;;;10.10;8.77;;;9.70;99.90;;;;;;5012876;28;20471;-69
2023/05/15 00:18:39;;;;;;;12.83;10.20;;;9.70;99.90;;;;;;5012823;28;20864;-69
2023/05/15 00:21:07;;;;;;;11.70;9.93;;;9.70;99.90;;;;;;5012821;28;21022;-69
2023/05/15 00:23:35;;;;;;;9.77;8.57;;;9.60;99.90;;;;;;5012238;28;20451;-69
2023/05/15 00:26:04;;;;;;;11.63;9.30;;;9.60;99.90;;;;;;5012723;28;20478;-69
2023/05/15 00:28:32;;;;;;;9.83;8.93;;;9.60;99.90;;;;;;5012768;28;20464;-68
2023/05/15 00:30:59;;;;;;;8.83;8.00;;;9.60;99.90;;;;;;5012000;28;20438;-68
2023/05/15 00:33:29;;;;;;;10.17;9.00;;;9.60;99.90;;;;;;5012635;28;20452;-67
2023/05/15 00:35:57;;;;;;;10.57;9.00;;;9.50;99.90;;;;;;5012323;28;20503;-68
2023/05/15 00:38:25;;;;;;;10.13;9.10;;;9.60;99.90;;;;;;5013073;28;20441;-68
2023/05/15 00:40:55;;;;;;;13.03;8.13;;;9.70;99.90;;;;;;5012661;28;20440;-67
2023/05/15 00:43:25;;;;;;;11.57;9.00;;;9.80;99.90;;;;;;5012537;28;20536;-68
2023/05/15 00:45:54;;;;;;;10.60;9.60;;;9.80;99.90;;;;;;5012367;28;20495;-68
2023/05/15 00:48:24;;;;;;;9.67;8.80;;;9.90;99.90;;;;;;5012741;28;20525;-68
2023/05/15 00:50:54;;;;;;;11.23;9.30;;;10.00;99.90;;;;;;5012350;28;20565;-68
2023/05/15 00:53:22;;;;;;;8.93;8.10;;;10.10;99.90;;;;;;5012202;28;20472;-68
2023/05/15 00:55:51;;;;;;;9.70;8.70;;;10.10;99.90;;;;;;5012517;28;20895;-68
2023/05/15 00:58:21;;;;;;;10.10;9.10;;;10.10;99.90;;;;;;5012344;28;20441;-68
2023/05/15 01:00:50;;;;;;;8.83;8.03;;;10.00;99.90;;;;;;5012206;28;20473;-68
2023/05/15 01:03:18;;;;;;;9.30;8.03;;;10.10;99.90;;;;;;5011903;28;20449;-68
2023/05/15 01:05:46;;;;;;;9.37;8.37;;;10.00;99.90;;;;;;5012057;28;20547;-69
2023/05/15 01:08:21;;;;;;;9.70;8.80;;;10.00;99.90;;;;;;5011790;28;20500;-68
2023/05/15 01:10:49;;;;;;;9.50;8.60;;;10.00;99.90;;;;;;5012202;28;20439;-68
2023/05/15 01:13:20;;;;;;;10.00;9.00;;;10.00;99.90;;;;;;5011529;28;21150;-67
2023/05/15 01:15:49;;;;;;;10.43;9.30;;;10.00;99.90;;;;;;5012223;28;20453;-68
2023/05/15 01:18:17;;;;;;;10.07;9.07;;;10.20;99.90;;;;;;5012167;28;20436;-68
2023/05/15 01:21:06;;;;;;;9.87;8.97;;;10.10;99.90;;;;;;5011735;28;20506;-68
2023/05/15 01:23:46;;;;;;;12.27;9.73;;;10.10;99.90;;;;;;5011649;28;20434;-68
2023/05/15 01:26:39;;;;;;;12.43;10.80;;;10.00;99.90;;;;;;5011469;28;20825;-68
2023/05/15 01:29:14;;;;;;;11.43;9.23;;;10.00;99.90;;;;;;5011537;28;20430;-68
2023/05/15 01:31:46;;;;;;;10.83;9.73;;;10.10;99.90;;;;;;5011370;28;20446;-68
2023/05/15 01:34:20;;;;;;;10.03;8.93;;;10.10;99.90;;;;;;5011261;28;20528;-68
2023/05/15 01:36:53;;;;;;;10.03;9.03;;;9.90;99.90;;;;;;5011365;28;20480;-68
2023/05/15 01:39:25;;;;;;;11.00;10.00;;;9.90;99.90;;;;;;5011624;28;20444;-68
2023/05/15 01:41:58;;;;;;;11.93;10.73;;;9.90;99.90;;;;;;5011135;28;20453;-68
2023/05/15 01:44:30;;;;;;;9.43;8.43;;;10.00;99.90;;;;;;5011066;28;20970;-68
2023/05/15 01:46:59;;;;;;;11.33;10.23;;;10.00;99.90;;;;;;5011433;28;20495;-68
2023/05/15 01:49:29;;;;;;;9.90;8.90;;;9.90;99.90;;;;;;5011104;28;20446;-68
2023/05/15 01:52:03;;;;;;;9.63;8.67;;;10.00;99.90;;;;;;5011112;28;20932;-68
2023/05/15 01:54:33;;;;;;;10.33;9.07;;;10.00;99.90;;;;;;5010620;28;20553;-68
2023/05/15 01:57:02;;;;;;;9.30;8.50;;;10.00;99.90;;;;;;5010815;28;20469;-68
2023/05/15 01:59:32;;;;;;;10.47;9.50;;;10.10;99.90;;;;;;5010617;28;20815;-68
2023/05/15 02:02:00;;;;;;;9.33;8.43;;;10.10;99.90;;;;;;5009861;28;20447;-68
2023/05/15 02:04:31;;;;;;;10.07;9.03;;;10.00;99.90;;;;;;5010082;28;20481;-68
2023/05/15 02:07:01;;;;;;;9.63;8.73;;;10.00;99.90;;;;;;5010584;28;20488;-68
2023/05/15 02:09:29;;;;;;;9.27;8.30;;;10.00;99.90;;;;;;5010832;28;20876;-68
2023/05/15 02:11:58;;;;;;;10.00;9.10;;;9.90;99.90;;;;;;5010487;28;20457;-68
2023/05/15 02:14:28;;;;;;;9.60;8.80;;;9.90;99.90;;;;;;5010586;28;20875;-68
2023/05/15 02:16:57;;;;;;;9.50;8.60;;;9.90;99.90;;;;;;5010478;28;20465;-68
2023/05/15 02:19:25;;;;;;;10.13;9.13;;;9.70;99.90;;;;;;5010718;28;20453;-68
2023/05/15 02:21:53;;;;;;;9.90;8.90;;;9.60;99.90;;;;;;5010737;28;20449;-69
2023/05/15 02:24:23;;;;;;;10.23;9.23;;;9.50;99.90;;;;;;5010314;28;20463;-68
2023/05/15 02:27:00;;;;;;;11.80;9.07;;;9.40;99.90;;;;;;5010502;28;20562;-68
2023/05/15 02:29:36;;;;;;;11.10;8.57;;;9.50;99.90;;;;;;5010339;28;20536;-68
2023/05/15 02:32:14;;;;;;;11.17;9.40;;;9.50;99.90;;;;;;5010677;28;20445;-68
2023/05/15 02:35:02;;;;;;;9.67;8.67;;;9.50;99.90;;;;;;5009757;28;20441;-68
2023/05/15 02:37:33;;;;;;;9.23;8.33;;;9.50;99.90;;;;;;5010575;28;20509;-68
2023/05/15 02:40:01;;;;;;;10.23;8.53;;;9.70;99.90;;;;;;5010473;28;20445;-68
2023/05/15 02:42:31;;;;;;;9.47;8.00;;;9.80;99.90;;;;;;5010359;28;20459;-68
2023/05/15 02:45:00;;;;;;;8.83;7.93;;;9.90;99.90;;;;;;5010198;28;20527;-69
2023/05/15 02:47:31;;;;;;;9.97;8.97;;;10.00;99.90;;;;;;5010060;28;20492;-67
2023/05/15 02:50:00;;;;;;;9.50;8.50;;;10.00;99.90;;;;;;5010489;28;20446;-68
2023/05/15 02:52:28;;;;;;;9.97;8.97;;;10.00;99.90;;;;;;5009917;28;20549;-68
2023/05/15 02:54:56;;;;;;;9.37;8.43;;;10.00;99.90;;;;;;5009640;28;20449;-67
2023/05/15 02:57:24;;;;;;;8.33;7.53;;;10.00;99.90;;;;;;5009795;28;20455;-68
2023/05/15 02:59:53;;;;;;;9.50;8.50;;;9.90;99.90;;;;;;5010231;28;20568;-67
2023/05/15 03:02:21;;;;;;;10.07;9.07;;;9.90;99.90;;;;;;5009927;28;20446;-67
2023/05/15 03:04:50;;;;;;;10.00;9.00;;;9.90;99.90;;;;;;5010007;28;20481;-67
2023/05/15 03:07:18;;;;;;;10.63;8.13;;;10.00;99.90;;;;;;5009892;28;20446;-68
2023/05/15 03:09:46;;;;;;;8.60;7.80;;;10.10;99.90;;;;;;5009620;28;20500;-69
2023/05/15 03:12:14;;;;;;;8.80;8.00;;;10.20;99.90;;;;;;5009787;28;20437;-68
2023/05/15 03:14:42;;;;;;;9.33;8.20;;;10.10;99.90;;;;;;5009480;28;20449;-69
2023/05/15 03:17:10;;;;;;;9.40;8.50;;;10.00;99.90;;;;;;5009966;28;20442;-68
2023/05/15 03:19:38;;;;;;;8.63;7.83;;;10.00;99.90;;;;;;5009858;28;20480;-69
2023/05/15 03:22:07;;;;;;;10.23;9.23;;;10.00;99.90;;;;;;5009822;28;20442;-69
2023/05/15 03:24:35;;;;;;;10.17;8.50;;;10.00;99.90;;;;;;5009666;28;20451;-69
2023/05/15 03:27:03;;;;;;;9.53;8.53;;;10.10;99.90;;;;;;5009813;28;20480;-69
2023/05/15 03:29:31;;;;;;;8.83;7.90;;;10.30;99.90;;;;;;5009945;28;20561;-69
2023/05/15 03:31:59;;;;;;;9.13;7.87;;;10.30;99.90;;;;;;5009900;28;20452;-69
2023/05/15 03:34:27;;;;;;;9.47;8.50;;;10.40;99.90;;;;;;5009571;28;20445;-68
2023/05/15 03:36:55;;;;;;;13.40;9.23;;;10.30;99.90;;;;;;5009580;28;20904;-69
2023/05/15 03:39:24;;;;;;;10.03;8.87;;;10.30;99.90;;;;;;5009636;28;20446;-69
2023/05/15 03:41:52;;;;;;;10.03;9.03;;;10.20;99.90;;;;;;5009750;28;20451;-68
2023/05/15 03:44:20;;;;;;;9.90;8.97;;;10.30;99.90;;;;;;5009241;28;20452;-68
2023/05/15 03:46:48;;;;;;;9.10;8.20;;;10.20;99.90;;;;;;5009670;28;20470;-68
2023/05/15 03:49:16;;;;;;;8.30;7.40;;;10.40;99.90;;;;;;5009248;28;20486;-69
2023/05/15 03:51:44;;;;;;;9.77;8.20;;;10.30;99.90;;;;;;5009590;28;20525;-69
2023/05/15 03:54:12;;;;;;;9.50;8.60;;;10.20;99.90;;;;;;5009251;28;20537;-69
2023/05/15 03:56:41;;;;;;;9.37;8.33;;;10.20;99.90;;;;;;5009727;28;20466;-69
2023/05/15 03:59:09;;;;;;;9.50;8.60;;;10.30;99.90;;;;;;5009593;28;20441;-69
2023/05/15 04:01:37;;;;;;;9.33;8.43;;;10.20;99.90;;;;;;5009732;28;20495;-69
2023/05/15 04:04:27;;;;;;;11.23;9.37;;;10.10;99.90;;;;;;5009274;28;20493;-69
2023/05/15 04:06:55;;;;;;;9.70;8.70;;;10.10;99.90;;;;;;5011219;28;20497;-69
2023/05/15 04:09:23;;;;;;;9.53;8.53;;;10.30;99.90;;;;;;5012997;28;20886;-69
2023/05/15 04:11:52;;;;;;;10.00;8.90;;;10.30;99.90;;;;;;5012806;28;20447;-69
2023/05/15 04:14:20;;;;;;;10.37;8.43;;;10.50;99.90;;;;;;5012819;28;20454;-69
2023/05/15 04:16:48;;;;;;;9.17;8.27;;;10.70;99.90;;;;;;5012585;28;20577;-68
2023/05/15 04:19:16;;;;;;;9.20;8.40;;;10.80;99.90;;;;;;5013217;28;20439;-68
2023/05/15 04:21:44;;;;;;;8.60;7.30;;;10.90;99.90;;;;;;5012852;28;20445;-69
2023/05/15 04:24:12;;;;;;;9.07;8.27;;;11.00;99.90;;;;;;5012439;28;20461;-69
2023/05/15 04:26:40;;;;;;;7.40;6.70;;;11.00;99.90;;;;;;5012857;28;20468;-68
2023/05/15 04:29:10;;;;;;;7.50;6.83;;;11.10;99.90;;;;;;5012627;28;20996;-69
2023/05/15 04:31:38;;;;;;;7.73;7.03;;;11.30;99.90;;;;;;5012777;28;21008;-68
2023/05/15 04:34:06;;;;;;;9.30;6.90;;;11.50;99.90;;;;;;5012479;28;20450;-68
2023/05/15 04:36:34;;;;;;;7.90;7.10;;;11.60;99.90;;;;;;5012922;28;20563;-68
2023/05/15 04:39:02;;;;;;;8.47;7.77;;;11.70;99.90;;;;;;5012596;28;20535;-69
2023/05/15 04:41:32;;;;;;;7.80;7.20;;;11.90;99.90;;;;;;5012593;28;20449;-69
2023/05/15 04:43:59;;;;;;;7.73;7.13;;;12.00;99.90;;;;;;5012307;28;20554;-68
2023/05/15 04:46:29;;;;;;;7.47;6.87;;;12.20;99.90;;;;;;5012344;28;21341;-69
2023/05/15 04:48:59;;;;;;;8.07;7.37;;;12.30;99.90;;;;;;5012440;28;20539;-68
2023/05/15 04:51:27;;;;;;;7.27;6.57;;;12.30;99.90;;;;;;5012069;28;20456;-70
2023/05/15 04:53:55;;;;;;;9.07;8.23;;;12.40;99.90;;;;;;5011915;28;20448;-68
2023/05/15 04:56:23;;;;;;;7.97;7.27;;;12.50;99.90;;;;;;5012115;28;20588;-69
2023/05/15 04:58:50;;;;;;;8.03;7.00;;;12.60;99.90;;;;;;5012544;28;20453;-69
2023/05/15 05:01:18;;;;;;;8.10;7.30;;;12.80;99.90;;;;;;5012024;28;20442;-68
2023/05/15 05:03:48;;;;;;;7.53;6.90;;;12.90;99.90;;;;;;5011754;28;20461;-68
2023/05/15 05:06:16;;;;;;;8.87;8.07;;;13.00;99.90;;;;;;5011954;28;20473;-68
2023/05/15 05:08:44;;;;;;;7.87;7.03;;;13.00;99.90;;;;;;5011575;28;20473;-68
2023/05/15 05:11:11;;;;;;;8.57;7.73;;;13.10;99.90;;;;;;5011959;28;21014;-67
2023/05/15 05:13:40;;;;;;;10.27;7.07;;;13.20;99.60;;;;;;5011548;28;20528;-68
2023/05/15 05:16:08;;;;;;;8.30;7.50;;;13.20;99.10;;;;;;5011840;28;20462;-69
2023/05/15 05:18:37;;;;;;;8.33;7.63;;;13.20;99.20;;;;;;5008276;28;20452;-67
2023/05/15 05:21:06;;;;;;;8.67;7.90;;;13.20;99.20;;;;;;5009430;28;20523;-68
2023/05/15 05:23:34;;;;;;;9.13;8.23;;;13.20;99.40;;;;;;5010916;28;20440;-69
2023/05/15 05:26:03;;;;;;;8.60;7.80;;;13.10;99.50;;;;;;5011160;28;21165;-69
2023/05/15 05:28:33;;;;;;;9.50;8.60;;;13.20;99.40;;;;;;5011606;28;20455;-69
2023/05/15 05:31:01;;;;;;;10.20;9.07;;;13.20;99.80;;;;;;5009954;28;21043;-69
2023/05/15 05:33:29;;;;;;;9.57;8.70;;;13.20;99.00;;;;;;5011384;28;20448;-68
2023/05/15 05:35:57;;;;;;;10.70;9.60;;;13.20;99.20;;;;;;5011150;28;20494;-68
2023/05/15 05:38:26;;;;;;;11.27;10.07;;;13.10;98.70;;;;;;5011633;28;20822;-68
2023/05/15 05:40:54;;;;;;;10.40;9.50;;;13.00;99.60;;;;;;5011343;28;20446;-69
2023/05/15 05:43:22;;;;;;;10.30;9.20;;;13.00;99.90;;;;;;5010970;28;20478;-68
2023/05/15 05:45:50;;;;;;;9.80;8.83;;;13.10;99.10;;;;;;5011119;28;20997;-68
2023/05/15 05:48:18;;;;;;;9.83;8.83;;;13.20;98.70;;;;;;5011082;28;20941;-68
2023/05/15 05:50:46;;;;;;;9.87;8.97;;;13.20;98.50;;;;;;5011150;28;20485;-69
2023/05/15 05:53:15;;;;;;;10.70;9.60;;;13.20;98.40;;;;;;5010908;28;20479;-68
2023/05/15 05:55:44;;;;;;;10.33;9.23;;;13.20;98.60;;;;;;5011302;28;20475;-68
2023/05/15 05:58:12;;;;;;;10.63;9.43;;;13.20;98.30;;;;;;5010921;28;20444;-68
2023/05/15 06:00:51;;;;;;;10.17;9.17;;;13.20;98.60;;;;;;5009295;28;20437;-68
2023/05/15 06:03:20;;;;;;;11.67;10.57;;;13.30;99.10;;;;;;5010375;28;20444;-70
2023/05/15 06:05:48;;;;;;;10.50;9.40;;;13.30;97.90;;;;;;5011075;28;20473;-69
2023/05/15 06:08:16;;;;;;;9.83;8.93;;;13.30;98.00;;;;;;5010784;28;20449;-69
2023/05/15 06:10:46;;;;;;;10.13;8.97;;;13.30;98.10;;;;;;5010332;28;20491;-68
2023/05/15 06:13:14;;;;;;;9.87;8.87;;;13.30;97.90;;;;;;5009618;28;20464;-68
2023/05/15 06:15:44;;;;;;;10.97;9.87;;;13.50;98.10;;;;;;5009536;28;20582;-68
2023/05/15 06:18:12;;;;;;;10.13;9.13;;;13.60;98.10;;;;;;5010942;28;20499;-68
2023/05/15 06:20:41;;;;;;;10.47;9.10;;;13.70;97.50;;;;;;5010740;28;20815;-68
2023/05/15 06:23:09;;;;;;;9.23;8.33;;;13.80;97.70;;;;;;5010365;28;20455;-70
2023/05/15 06:25:37;;;;;;;11.27;8.93;;;13.90;96.30;;;;;;5010439;28;20470;-69
2023/05/15 06:28:07;;;;;;;8.67;7.87;;;13.90;96.00;;;;;;5010572;28;20445;-69
2023/05/15 06:30:34;;;;;;;8.50;7.80;;;14.00;96.60;;;;;;5010124;28;20511;-69
2023/05/15 06:33:02;;;;;;;9.07;8.10;;;14.00;95.40;;;;;;5010460;28;20449;-69
2023/05/15 06:35:30;;;;;;;10.07;8.90;;;14.10;95.60;;;;;;5010871;28;20527;-69
2023/05/15 06:37:58;;;;;;;8.87;8.03;;;14.10;95.80;;;;;;5010348;28;21184;-69
2023/05/15 06:40:26;;;;;;;9.23;8.33;;;14.10;95.40;;;;;;5010813;28;20429;-70
2023/05/15 06:42:54;;;;;;;8.90;8.10;;;14.10;94.80;;;;;;5010007;28;21316;-69
2023/05/15 06:45:24;;;;;;;8.97;8.07;;;14.30;95.00;;;;;;5010483;28;20466;-69
2023/05/15 06:47:53;;;;;;;8.87;8.07;;;14.40;95.20;;;;;;5010296;28;20452;-70
2023/05/15 06:50:21;;;;;;;8.10;7.50;;;14.40;94.50;;;;;;5010270;28;20484;-68
2023/05/15 06:52:49;;;;;;;8.80;7.90;;;14.50;94.80;;;;;;5010085;28;20454;-68
2023/05/15 06:55:16;;;;;;;9.10;6.67;;;14.50;94.20;;;;;;5010373;28;20465;-68
2023/05/15 06:57:44;;;;;;;8.13;7.33;;;14.60;93.00;;;;;;5010353;28;20440;-68
2023/05/15 07:00:14;;;;;;;7.37;6.67;;;14.70;93.20;;;;;;5010360;28;20445;-69
2023/05/15 07:02:43;;;;;;;7.70;7.00;;;14.80;92.20;;;;;;5010031;28;20512;-69
2023/05/15 07:05:11;;;;;;;7.93;7.13;;;14.80;91.40;;;;;;5010285;28;20869;-69
2023/05/15 07:07:39;;;;;;;7.20;6.37;;;14.80;92.10;;;;;;5010621;28;20441;-69
2023/05/15 07:10:09;;;;;;;7.60;6.90;;;14.90;91.20;;;;;;5010399;28;21035;-69
2023/05/15 07:12:36;;;;;;;7.30;6.60;;;15.00;91.60;;;;;;5010279;28;20450;-69
2023/05/15 07:15:05;;;;;;;7.23;6.63;;;15.00;90.80;;;;;;5011244;28;21006;-70
2023/05/15 07:17:33;;;;;;;7.70;6.80;;;15.10;91.00;;;;;;5011295;28;20446;-70
2023/05/15 07:20:04;;;;;;;8.00;7.13;;;15.10;91.00;;;;;;5010250;28;20449;-70
2023/05/15 07:22:32;;;;;;;7.50;6.77;;;15.20;91.00;;;;;;5009811;28;20924;-70
2023/05/15 07:25:11;;;;;;;8.70;6.93;;;15.30;91.00;;;;;;5010004;28;20476;-69
2023/05/15 07:27:42;;;;;;;6.87;6.27;;;15.40;90.10;;;;;;5009908;28;20468;-68
2023/05/15 07:30:11;;;;;;;7.53;6.73;;;15.50;91.10;;;;;;5009751;28;21169;-69
2023/05/15 07:32:38;;;;;;;7.13;5.90;;;15.60;90.90;;;;;;5009455;28;20446;-68
2023/05/15 07:35:10;;;;;;;8.67;6.93;;;15.60;88.50;;;;;;5010143;28;20566;-71
2023/05/15 07:37:38;;;;;;;7.03;6.40;;;15.80;89.50;;;;;;5009649;28;21035;-69
2023/05/15 07:40:07;;;;;;;7.20;6.60;;;15.90;90.10;;;;;;5010524;28;20825;-69
2023/05/15 07:42:35;;;;;;;5.83;5.33;;;16.00;88.30;;;;;;5013223;28;20506;-69
2023/05/15 07:45:03;;;;;;;6.10;5.30;;;16.10;85.40;;;;;;5013673;28;20471;-69
2023/05/15 07:47:31;;;;;;;6.40;5.80;;;16.20;85.90;;;;;;5013723;28;20447;-69
2023/05/15 07:49:59;;;;;;;5.60;5.17;;;16.20;84.80;;;;;;5013509;28;20531;-69
2023/05/15 07:52:28;;;;;;;5.37;4.97;;;16.50;83.90;;;;;;5013320;28;21001;-69
2023/05/15 07:54:56;;;;;;;5.73;5.23;;;16.50;83.00;;;;;;5013373;28;20453;-69
2023/05/15 07:57:25;;;;;;;5.63;5.13;;;16.50;80.90;;;;;;5013696;28;20530;-69
2023/05/15 07:59:53;;;;;;;6.13;5.53;;;16.40;80.10;;;;;;5013418;28;20458;-68
2023/05/15 08:02:21;;;;;;;5.90;5.50;;;16.50;80.50;;;;;;5012550;28;20442;-68
2023/05/15 08:04:49;;;;;;;6.93;6.33;;;16.70;82.40;;;;;;5013300;28;20903;-69
2023/05/15 08:07:17;;;;;;;5.97;5.37;;;16.90;80.90;;;;;;5013346;28;20448;-69
2023/05/15 08:09:46;;;;;;;5.60;5.13;;;17.00;80.30;;;;;;5013075;28;20443;-69
2023/05/15 08:12:19;;;;;;;5.83;5.37;;;16.90;80.70;;;;;;5013665;28;20441;-69
2023/05/15 08:14:49;;;;;;;5.80;5.33;;;17.10;78.00;;;;;;5013460;28;20449;-69
2023/05/15 08:17:17;;;;;;;4.80;4.40;;;17.20;78.00;;;;;;5013934;28;20455;-69
2023/05/15 08:19:46;;;;;;;5.30;4.83;;;17.00;77.10;;;;;;5013114;28;20852;-68
2023/05/15 08:22:14;;;;;;;5.23;4.73;;;16.70;78.60;;;;;;5012942;28;20444;-67
2023/05/15 08:24:42;;;;;;;5.77;4.70;;;16.70;80.50;;;;;;5012938;28;20437;-70
2023/05/15 08:27:12;;;;;;;6.77;5.17;;;16.80;80.40;;;;;;5011993;28;20851;-68
2023/05/15 08:29:40;;;;;;;4.77;4.27;;;16.80;76.70;;;;;;5007915;28;20452;-69
2023/05/15 08:32:09;;;;;;;5.07;4.57;;;16.90;77.00;;;;;;5008977;28;20473;-70
2023/05/15 08:34:37;;;;;;;5.40;4.90;;;17.10;78.30;;;;;;5008504;28;20480;-70
2023/05/15 08:37:06;;;;;;;5.90;5.40;;;17.30;76.00;;;;;;5008813;28;20987;-70
2023/05/15 08:39:34;;;;;;;5.07;4.57;;;17.30;75.60;;;;;;5008654;28;20485;-70
2023/05/15 08:42:08;;;;;;;5.57;5.17;;;17.40;78.20;;;;;;5008800;28;20448;-70
2023/05/15 08:44:38;;;;;;;5.23;4.77;;;17.60;75.20;;;;;;5008569;28;21029;-70
2023/05/15 08:47:07;;;;;;;6.23;5.60;;;17.70;73.00;;;;;;5008541;28;20442;-70
2023/05/15 08:49:44;;;;;;;4.40;4.10;;;17.80;74.60;;;;;;5008840;28;20537;-70
2023/05/15 08:52:12;;;;;;;4.43;4.03;;;18.20;76.90;;;;;;5008039;28;20475;-70
2023/05/15 08:54:41;;;;;;;4.67;4.27;;;18.60;72.20;;;;;;5008696;28;20445;-70
2023/05/15 08:57:10;;;;;;;4.50;4.13;;;18.40;72.00;;;;;;5008713;28;21011;-70
2023/05/15 08:59:39;;;;;;;6.17;5.67;;;18.50;73.00;;;;;;5009207;28;20438;-70
2023/05/15 09:02:07;;;;;;;5.07;4.67;;;18.90;74.20;;;;;;5008873;28;20438;-70
2023/05/15 09:04:35;;;;;;;5.03;4.63;;;19.10;68.40;;;;;;5008744;28;20541;-70
2023/05/15 09:07:05;;;;;;;4.90;4.50;;;19.10;66.10;;;;;;5008613;28;20473;-70
2023/05/15 09:09:34;;;;;;;5.10;4.80;;;19.10;66.90;;;;;;5008404;28;21177;-70
2023/05/15 09:12:03;;;;;;;5.10;4.70;;;19.20;64.80;;;;;;5008527;28;20569;-70
2023/05/15 09:14:31;;;;;;;6.00;5.40;;;19.10;65.20;;;;;;5008456;28;20438;-70
2023/05/15 09:17:00;;;;;;;5.57;5.13;;;19.40;64.60;;;;;;5008275;28;20545;-69
2023/05/15 09:19:28;;;;;;;4.80;4.30;;;19.80;62.60;;;;;;5008048;28;20446;-69
2023/05/15 09:22:15;;;;;;;4.60;4.30;;;19.80;60.90;;;;;;5008657;28;20438;-69
2023/05/15 09:24:43;;;;;;;5.30;4.80;;;19.70;62.40;;;;;;5008510;28;20522;-70
2023/05/15 09:27:11;;;;;;;4.77;4.00;;;19.60;63.60;;;;;;5009091;28;20811;-70
2023/05/15 09:29:39;;;;;;;4.40;4.10;;;19.00;63.30;;;;;;5008190;28;20445;-70
2023/05/15 09:32:10;;;;;;;6.17;4.40;;;18.60;65.50;;;;;;5007796;28;20470;-70
2023/05/15 09:34:39;;;;;;;4.50;4.20;;;18.60;66.60;;;;;;5007850;28;20888;-70
2023/05/15 09:37:09;;;;;;;5.80;5.10;;;18.90;66.40;;;;;;5008022;28;20442;-70
2023/05/15 09:39:40;;;;;;;5.03;4.63;;;19.10;64.90;;;;;;5007997;28;20434;-70
2023/05/15 09:42:10;;;;;;;4.80;4.40;;;18.90;64.80;;;;;;5007759;28;20441;-69
2023/05/15 09:44:41;;;;;;;5.50;4.90;;;18.90;62.60;;;;;;5007105;28;20457;-68
2023/05/15 09:47:12;;;;;;;4.97;4.67;;;19.30;63.10;;;;;;5007776;28;20904;-70
2023/05/15 09:49:43;;;;;;;4.40;4.10;;;19.60;62.00;;;;;;5008247;28;20449;-70
2023/05/15 09:52:11;;;;;;;4.70;4.30;;;20.00;60.70;;;;;;5007721;28;20570;-69
2023/05/15 09:54:40;;;;;;;6.80;4.40;;;20.00;59.90;;;;;;5007295;28;20797;-70
2023/05/15 09:57:09;;;;;;;5.03;4.73;;;20.10;58.40;;;;;;5007217;28;20434;-69
2023/05/15 09:59:43;;;;;;;4.57;4.27;;;20.60;59.00;;;;;;5007331;28;20438;-70
2023/05/15 10:02:23;;;;;;;4.40;4.10;;;20.60;58.60;;;;;;5007302;28;20980;-69
2023/05/15 10:04:56;;;;;;;4.77;4.47;;;20.00;59.10;;;;;;5005888;28;21173;-69
2023/05/15 10:07:28;;;;;;;4.70;4.20;;;20.20;59.60;;;;;;5006923;28;20450;-69
2023/05/15 10:09:57;;;;;;;4.47;4.17;;;20.70;59.00;;;;;;5007442;28;20445;-69
2023/05/15 10:12:25;;;;;;;5.23;4.83;;;21.30;58.70;;;;;;5006908;28;20489;-69
2023/05/15 10:14:55;;;;;;;5.23;4.83;;;21.60;57.30;;;;;;5009529;28;20441;-68
2023/05/15 10:17:25;;;;;;;5.90;4.60;;;21.70;58.00;;;;;;5010713;28;20464;-68
2023/05/15 10:19:54;;;;;;;4.40;4.10;;;22.10;56.00;;;;;;5009919;28;20476;-68
2023/05/15 10:22:30;;;;;;;4.90;4.50;;;21.90;55.00;;;;;;5010609;28;20441;-68
2023/05/15 10:25:05;;;;;;;4.70;4.30;;;21.40;55.50;;;;;;5010428;28;20441;-70
2023/05/15 10:27:36;;;;;;;5.10;4.60;;;21.50;55.40;;;;;;5010552;28;20477;-71
2023/05/15 10:30:05;;;;;;;4.60;4.20;;;21.50;55.20;;;;;;4990676;28;20474;-70
2023/05/15 10:32:35;;;;;;;4.13;3.80;;;21.70;52.60;;;;;;4990666;28;20544;-70
2023/05/15 10:35:03;;;;;;;3.87;3.57;;;21.80;54.10;;;;;;4991115;28;20468;-70
2023/05/15 10:37:32;;;;;;;3.67;3.37;;;21.90;52.70;;;;;;4990755;28;20968;-70
2023/05/15 10:40:06;;;;;;;4.23;3.77;;;21.50;52.00;;;;;;4990940;28;20485;-69
2023/05/15 10:42:35;;;;;;;3.27;3.07;;;21.30;52.50;;;;;;4990488;28;20453;-70
2023/05/15 10:45:05;;;;;;;3.80;3.50;;;21.40;52.40;;;;;;4990958;28;20852;-70
2023/05/15 10:47:35;;;;;;;3.93;3.63;;;21.40;49.70;;;;;;4990915;28;20520;-70
2023/05/15 10:50:04;;;;;;;3.80;3.60;;;21.70;50.40;;;;;;4990481;28;20494;-70
2023/05/15 10:52:32;;;;;;;6.90;3.50;;;21.90;50.10;;;;;;4990266;28;20466;-70
2023/05/15 10:55:00;;;;;;;3.70;3.33;;;22.10;48.70;;;;;;4990544;28;20960;-70
2023/05/15 10:57:29;;;;;;;4.60;3.90;;;22.60;49.10;;;;;;4990889;28;20446;-70
2023/05/15 10:59:58;;;;;;;4.37;3.97;;;22.80;49.50;;;;;;4990978;28;20456;-70
2023/05/15 11:02:30;;;;;;;4.27;3.97;;;22.90;49.50;;;;;;4990523;28;20446;-70
2023/05/15 11:05:01;;;;;;;4.40;4.10;;;22.50;50.40;;;;;;4990699;28;20490;-70
2023/05/15 11:07:29;;;;;;;3.90;3.60;;;21.80;51.50;;;;;;4990702;28;20457;-70
2023/05/15 11:09:59;;;;;;;4.00;3.70;;;21.00;53.00;;;;;;4990741;28;20541;-70
2023/05/15 11:12:56;;;;;;;4.20;3.90;;;20.40;53.40;;;;;;4990207;28;20844;-69
2023/05/15 11:15:29;;;;;;;4.27;3.87;;;19.80;53.50;;;;;;4990013;28;20458;-70
2023/05/15 11:18:04;;;;;;;4.53;4.03;;;19.60;54.40;;;;;;4990472;28;20439;-70
2023/05/15 11:20:40;;;;;;;4.17;3.80;;;20.10;53.70;;;;;;4990677;28;20820;-69
2023/05/15 11:23:09;;;;;;;7.30;4.20;;;21.20;51.80;;;;;;4990456;28;20438;-70
2023/05/15 11:25:37;;;;;;;4.30;4.00;;;22.30;50.00;;;;;;4990607;28;20845;-70
2023/05/15 11:28:06;;;;;;;4.10;3.80;;;23.00;48.90;;;;;;4990584;28;20443;-70
2023/05/15 11:30:36;;;;;;;3.93;3.50;;;23.60;46.50;;;;;;4990341;28;20449;-70
2023/05/15 11:33:08;;;;;;;4.83;3.93;;;24.20;45.40;;;;;;4990267;28;20486;-70
2023/05/15 11:35:41;;;;;;;3.57;3.30;;;24.00;44.60;;;;;;4990557;28;20454;-70
2023/05/15 11:38:14;;;;;;;3.90;3.70;;;23.20;45.60;;;;;;4990438;28;20520;-70
2023/05/15 11:40:46;;;;;;;4.80;4.40;;;22.10;47.80;;;;;;4990318;28;20439;-70
2023/05/15 11:43:19;;;;;;;4.00;3.70;;;21.30;49.70;;;;;;4990111;28;20443;-69
2023/05/15 11:45:49;;;;;;;4.63;4.23;;;20.80;50.80;;;;;;4990368;28;20584;-69
2023/05/15 11:48:19;;;;;;;4.90;4.50;;;20.60;51.90;;;;;;4990347;28;20820;-70
2023/05/15 11:50:49;;;;;;;3.87;3.50;;;21.20;50.50;;;;;;4990174;28;20538;-69
2023/05/15 11:53:18;;;;;;;4.27;3.83;;;21.40;49.70;;;;;;4989642;28;20506;-69
2023/05/15 11:55:46;;;;;;;5.73;3.73;;;21.20;49.00;;;;;;4989933;28;20458;-69
2023/05/15 11:58:15;;;;;;;5.53;3.67;;;21.40;48.70;;;;;;4990072;28;20456;-69
2023/05/15 12:00:48;;;;;;;4.20;3.90;;;22.10;47.10;;;;;;4990053;28;20443;-69
2023/05/15 12:03:19;;;;;;;4.97;4.57;;;21.80;48.30;;;;;;4989547;28;20968;-69
2023/05/15 12:05:48;;;;;;;4.80;3.80;;;21.40;49.40;;;;;;4989890;28;20506;-69
2023/05/15 12:08:30;;;;;;;3.77;3.57;;;20.90;51.20;;;;;;4990115;28;20831;-69
2023/05/15 12:10:59;;;;;;;4.03;3.60;;;20.40;51.50;;;;;;4990127;28;20453;-69
2023/05/15 12:13:27;;;;;;;6.70;4.20;;;20.10;51.40;;;;;;4989590;28;20478;-69
2023/05/15 12:15:56;;;;;;;4.03;3.73;;;20.20;51.30;;;;;;4989842;28;20466;-70
2023/05/15 12:18:24;;;;;;;3.90;3.60;;;20.40;54.50;;;;;;4989526;28;20969;-70
2023/05/15 12:20:54;;;;;;;4.73;3.73;;;20.40;50.90;;;;;;4989954;28;20469;-70
2023/05/15 12:23:24;;;;;;;4.23;3.83;;;20.30;50.80;;;;;;4989437;28;20449;-70
2023/05/15 12:25:57;;;;;;;5.67;4.10;;;20.30;51.30;;;;;;4989841;28;20473;-70
2023/05/15 12:28:25;;;;;;;4.03;3.63;;;20.20;49.90;;;;;;4992456;28;20462;-70
2023/05/15 12:30:54;;;;;;;5.30;4.80;;;20.20;51.00;;;;;;4993260;28;20520;-69
2023/05/15 12:33:22;;;;;;;4.13;3.80;;;20.20;51.40;;;;;;4993181;28;20485;-70
2023/05/15 12:35:54;;;;;;;4.00;3.70;;;20.00;52.40;;;;;;4992959;28;20471;-70
2023/05/15 12:38:27;;;;;;;4.50;3.70;;;19.70;51.80;;;;;;4993345;28;20435;-70
2023/05/15 12:40:55;;;;;;;4.00;3.60;;;19.50;53.70;;;;;;4993299;28;20465;-70
2023/05/15 12:43:24;;;;;;;5.47;3.43;;;19.20;55.00;;;;;;4992772;28;20466;-70
2023/05/15 12:45:53;;;;;;;3.40;3.10;;;18.70;55.10;;;;;;4992994;28;20467;-69
2023/05/15 12:48:21;;;;;;;3.10;2.90;;;18.40;52.70;;;;;;4993277;28;20450;-70
2023/05/15 12:50:50;;;;;;;3.10;2.90;;;18.50;54.20;;;;;;4993196;28;20453;-70
2023/05/15 12:53:21;;;;;;;3.30;3.10;;;19.50;52.60;;;;;;4992779;28;20478;-70
2023/05/15 12:55:51;;;;;;;4.03;3.30;;;19.90;51.90;;;;;;4992600;28;20502;-70
2023/05/15 12:58:19;;;;;;;4.67;3.40;;;19.30;52.80;;;;;;4992873;28;20455;-70